Time;durP1;ratioP1;P1;durP2;ratioP2;P2;SDS_P1;SDS_P2;PMS_P1;PMS_P2;Temp;Humidity;BMP_temperature;BMP_pressure;BME280_temperature;BME280_humidity;BME280_pressure;Samples;Min_cycle;Max_cycle;Signal;HPM_P1;HPM_P2
2023/07/04 00:03:10;;;;;;;;;;;;;;;17.72;100.00;97737.97;18567725;31;19989;-47
2023/07/04 00:13:14;;;;;;;;;;;;;;;17.77;100.00;97724.19;18567212;32;20000;-48
2023/07/04 00:23:17;;;;;;;;;;;;;;;17.78;100.00;97710.19;18566897;32;19984;-49
2023/07/04 00:33:24;;;;;;;;;;;;;;;17.82;100.00;97715.03;18566043;32;20288;-48
2023/07/04 00:43:45;;;;;;;;;;;;;;;17.83;100.00;97722.94;18565574;32;19964;-47
2023/07/04 00:53:49;;;;;;;;;;;;;;;17.78;100.00;97725.78;18564516;32;20284;-49
2023/07/04 01:03:54;;;;;;;;;;;;;;;17.71;100.00;97725.44;18563564;32;19998;-49
2023/07/04 01:13:56;;;;;;;;;;;;;;;17.67;100.00;97725.25;18563946;32;20298;-49
2023/07/04 01:24:10;;;;;;;;;;;;;;;17.68;100.00;97734.25;18562918;32;19969;-50
2023/07/04 01:34:15;;;;;;;;;;;;;;;17.66;100.00;97733.78;18547672;32;20047;-49
2023/07/04 01:44:17;;;;;;;;;;;;;;;17.62;100.00;97734.44;18561741;32;19952;-48
2023/07/04 01:54:19;;;;;;;;;;;;;;;17.57;100.00;97731.81;18561198;32;19952;-48
2023/07/04 02:04:22;;;;;;;;;;;;;;;17.54;100.00;97729.72;18561078;32;20260;-48
2023/07/04 02:14:24;;;;;;;;;;;;;;;17.59;100.00;97718.62;18566343;32;20022;-49
2023/07/04 02:24:27;;;;;;;;;;;;;;;17.59;100.00;97729.56;18573828;32;19984;-49
2023/07/04 02:34:29;;;;;;;;;;;;;;;17.62;100.00;97739.06;18573261;32;20008;-48
2023/07/04 02:44:33;;;;;;;;;;;;;;;17.54;100.00;97743.41;18572665;32;20359;-48
2023/07/04 02:54:36;;;;;;;;;;;;;;;17.54;100.00;97729.72;18557559;32;19953;-49
2023/07/04 03:04:38;;;;;;;;;;;;;;;17.27;100.00;97734.22;18571464;32;19949;-48
2023/07/04 03:14:41;;;;;;;;;;;;;;;17.03;100.00;97739.22;18556722;32;19948;-48
2023/07/04 03:24:43;;;;;;;;;;;;;;;16.84;100.00;97742.09;18570004;32;20381;-48
2023/07/04 03:34:46;;;;;;;;;;;;;;;16.62;100.00;97748.34;18542003;32;19964;-49
2023/07/04 03:44:49;;;;;;;;;;;;;;;16.58;100.00;97756.31;18554818;31;19952;-51
2023/07/04 03:54:51;;;;;;;;;;;;;;;16.57;100.00;97762.91;18568702;32;20226;-48
2023/07/04 04:04:53;;;;;;;;;;;;;;;16.48;100.00;97743.72;18553697;32;19982;-52
2023/07/04 04:14:56;;;;;;;;;;;;;;;16.41;100.00;97749.59;18567175;32;20351;-48
2023/07/04 04:24:59;;;;;;;;;;;;;;;16.36;100.00;97754.34;18552221;32;20059;-48
2023/07/04 04:35:02;;;;;;;;;;;;;;;16.42;100.00;97758.59;18565198;31;20333;-50
2023/07/04 04:45:07;;;;;;;;;;;;;;;16.71;100.00;97747.28;18565523;32;20000;-47
2023/07/04 04:55:10;;;;;;;;;;;;;;;16.98;100.00;97755.72;18564478;32;20011;-50
2023/07/04 05:05:13;;;;;;;;;;;;;;;17.28;100.00;97752.25;18550017;32;19987;-48
2023/07/04 05:15:15;;;;;;;;;;;;;;;17.54;100.00;97758.97;18549078;32;19986;-52
2023/07/04 05:25:18;;;;;;;;;;;;;;;17.78;100.00;97758.63;18562718;32;19964;-48
2023/07/04 05:35:23;;;;;;;;;;;;;;;18.12;100.00;97763.44;18562293;32;19956;-47
2023/07/04 05:45:27;;;;;;;;;;;;;;;18.44;100.00;97777.03;18546733;32;19949;-48
2023/07/04 05:55:30;;;;;;;;;;;;;;;18.70;100.00;97771.59;18546658;32;20000;-50
2023/07/04 06:05:42;;;;;;;;;;;;;;;19.12;100.00;97782.91;18546154;32;20272;-52
2023/07/04 06:15:46;;;;;;;;;;;;;;;19.44;100.00;97785.47;18560708;32;19993;-48
2023/07/04 06:25:55;;;;;;;;;;;;;;;19.69;100.00;97794.75;18560277;32;19953;-49
2023/07/04 06:35:59;;;;;;;;;;;;;;;19.94;100.00;97789.56;18546020;32;19956;-52
2023/07/04 06:46:03;;;;;;;;;;;;;;;20.26;100.00;97790.84;18559805;32;19999;-52
2023/07/04 06:56:09;;;;;;;;;;;;;;;20.62;100.00;97789.53;18559449;32;19956;-50
